createdAt,value
2018-05-14T00:02:20.258Z,9.53
2018-05-14T00:04:47.831Z,9.43
2018-05-14T00:07:15.306Z,10.10
2018-05-14T00:09:42.867Z,10.10
2018-05-14T00:12:10.326Z,10.17
2018-05-14T00:14:37.798Z,10.93
2018-05-14T00:17:05.364Z,10.97
2018-05-14T00:19:32.839Z,11.13
2018-05-14T00:22:00.305Z,10.70
2018-05-14T00:24:27.757Z,11.23
2018-05-14T00:26:55.218Z,10.50
2018-05-14T00:29:22.684Z,10.70
2018-05-14T00:31:50.232Z,10.93
2018-05-14T00:34:17.697Z,11.20
2018-05-14T00:36:45.964Z,11.77
2018-05-14T00:39:13.434Z,11.17
2018-05-14T00:41:40.894Z,11.97
2018-05-14T00:44:08.370Z,12.10
2018-05-14T00:46:35.834Z,11.33
2018-05-14T00:49:03.282Z,12.43
2018-05-14T00:51:30.753Z,12.17
2018-05-14T00:53:58.225Z,12.47
2018-05-14T00:56:25.786Z,12.47
2018-05-14T00:58:53.254Z,11.60
2018-05-14T01:01:20.729Z,11.63
2018-05-14T01:03:48.276Z,12.80
2018-05-14T01:06:15.767Z,13.87
2018-05-14T01:08:43.301Z,13.90
2018-05-14T01:11:10.783Z,14.03
2018-05-14T01:13:38.258Z,14.70
2018-05-14T01:16:05.707Z,14.20
2018-05-14T01:18:33.182Z,13.80
2018-05-14T01:21:00.633Z,13.87
2018-05-14T01:23:28.106Z,14.70
2018-05-14T01:25:55.571Z,14.40
2018-05-14T01:28:23.013Z,15.27
2018-05-14T01:30:50.477Z,15.73
2018-05-14T01:33:17.930Z,14.67
2018-05-14T01:35:45.401Z,14.80
2018-05-14T01:38:12.883Z,15.53
2018-05-14T01:40:40.344Z,14.63
2018-05-14T01:43:07.894Z,14.07
2018-05-14T01:45:35.364Z,15.77
2018-05-14T01:48:02.811Z,13.20
2018-05-14T01:50:30.274Z,14.57
2018-05-14T01:52:57.723Z,13.83
2018-05-14T01:55:25.223Z,13.33
2018-05-14T01:57:52.673Z,12.30
2018-05-14T02:00:20.143Z,10.87
2018-05-14T02:02:47.699Z,9.40
2018-05-14T02:05:15.169Z,8.53
2018-05-14T02:07:42.610Z,7.83
2018-05-14T02:10:10.086Z,8.37
2018-05-14T02:12:37.545Z,7.50
2018-05-14T02:15:05.011Z,8.33
2018-05-14T02:17:32.462Z,6.93
2018-05-14T02:19:59.933Z,6.97
2018-05-14T02:22:27.383Z,6.47
2018-05-14T02:24:54.874Z,6.40
2018-05-14T02:27:22.430Z,5.90
2018-05-14T02:29:49.902Z,6.40
2018-05-14T02:32:17.382Z,6.40
2018-05-14T02:34:44.929Z,7.03
2018-05-14T02:37:12.494Z,6.97
2018-05-14T02:39:39.939Z,7.10
2018-05-14T02:42:07.407Z,6.53
2018-05-14T02:44:34.882Z,7.00
2018-05-14T02:47:02.342Z,5.80
2018-05-14T02:49:29.821Z,5.77
2018-05-14T02:51:57.376Z,6.23
2018-05-14T02:54:24.848Z,5.90
2018-05-14T02:56:52.323Z,6.27
2018-05-14T02:59:19.786Z,5.97
2018-05-14T03:01:47.331Z,6.57
2018-05-14T03:04:14.791Z,4.87
2018-05-14T03:06:42.244Z,5.87
2018-05-14T03:09:09.717Z,6.07
2018-05-14T03:11:37.159Z,6.03
2018-05-14T03:14:04.627Z,6.73
2018-05-14T03:16:32.106Z,7.33
2018-05-14T03:18:59.583Z,7.60
2018-05-14T03:21:27.051Z,8.23
2018-05-14T03:23:54.500Z,9.03
2018-05-14T03:26:21.977Z,8.07
2018-05-14T03:28:49.418Z,8.57
2018-05-14T03:31:16.892Z,8.17
2018-05-14T03:33:45.517Z,9.40
2018-05-14T03:36:14.452Z,9.73
2018-05-14T03:38:41.942Z,10.10
2018-05-14T03:41:09.400Z,10.47
2018-05-14T03:43:36.971Z,10.00
2018-05-14T03:46:04.527Z,8.97
2018-05-14T03:48:32.099Z,9.40
2018-05-14T03:50:59.575Z,8.73
2018-05-14T03:53:27.039Z,8.80
2018-05-14T03:55:55.514Z,8.43
2018-05-14T03:58:34.779Z,8.40
2018-05-14T04:04:28.193Z,9.23
2018-05-14T04:06:55.641Z,9.13
2018-05-14T04:09:23.102Z,9.73
2018-05-14T04:11:50.603Z,9.43
2018-05-14T04:14:18.070Z,9.73
2018-05-14T04:16:45.614Z,9.17
2018-05-14T04:19:13.094Z,9.30
2018-05-14T04:21:40.540Z,10.07
2018-05-14T04:24:08.118Z,10.47
2018-05-14T04:26:35.684Z,10.03
2018-05-14T04:29:03.126Z,9.80
2018-05-14T04:31:30.598Z,9.73
2018-05-14T04:33:58.053Z,9.83
2018-05-14T04:36:25.513Z,10.30
2018-05-14T04:38:52.996Z,10.73
2018-05-14T04:41:20.458Z,10.90
2018-05-14T04:43:48.022Z,9.80
2018-05-14T04:46:15.491Z,10.87
2018-05-14T04:48:42.950Z,10.40
2018-05-14T04:51:10.412Z,9.57
2018-05-14T04:53:37.857Z,9.67
2018-05-14T04:56:05.330Z,9.07
2018-05-14T04:58:32.784Z,9.67
2018-05-14T05:01:00.228Z,9.60
2018-05-14T05:03:27.684Z,8.90
2018-05-14T05:05:55.886Z,9.17
2018-05-14T05:08:23.371Z,9.37
2018-05-14T05:10:50.843Z,8.70
2018-05-14T05:13:18.401Z,8.83
2018-05-14T05:15:45.866Z,8.03
2018-05-14T05:18:13.334Z,8.37
2018-05-14T05:20:40.778Z,9.13
2018-05-14T05:23:08.258Z,8.50
2018-05-14T05:25:35.727Z,8.77
2018-05-14T05:28:03.282Z,8.93
2018-05-14T05:30:30.743Z,9.53
2018-05-14T05:32:58.220Z,9.27
2018-05-14T05:35:25.687Z,8.13
2018-05-14T05:37:53.179Z,8.50
2018-05-14T05:40:20.707Z,9.17
2018-05-14T05:42:48.147Z,8.83
2018-05-14T05:45:15.603Z,8.40
2018-05-14T05:47:43.064Z,7.90
2018-05-14T05:50:10.537Z,7.90
2018-05-14T05:52:37.987Z,8.47
2018-05-14T05:55:05.564Z,9.50
2018-05-14T05:57:33.007Z,7.90
2018-05-14T06:00:00.511Z,8.13
2018-05-14T06:02:28.078Z,7.70
2018-05-14T06:04:55.527Z,7.77
2018-05-14T06:07:23.105Z,7.87
2018-05-14T06:09:50.575Z,7.77
2018-05-14T06:12:18.042Z,7.57
2018-05-14T06:14:45.594Z,7.77
2018-05-14T06:17:13.066Z,7.20
2018-05-14T06:19:40.526Z,6.63
2018-05-14T06:22:07.973Z,7.43
2018-05-14T06:24:35.442Z,7.53
2018-05-14T06:27:02.919Z,7.30
2018-05-14T06:29:30.370Z,7.67
2018-05-14T06:31:57.938Z,7.77
2018-05-14T06:34:25.440Z,7.70
2018-05-14T06:36:52.864Z,6.67
2018-05-14T06:39:20.322Z,7.27
2018-05-14T06:41:47.779Z,7.43
2018-05-14T06:44:15.349Z,7.70
2018-05-14T06:46:42.725Z,8.20
2018-05-14T06:49:10.194Z,6.80
2018-05-14T06:51:37.746Z,7.20
2018-05-14T06:54:05.190Z,7.80
2018-05-14T06:56:32.684Z,7.77
2018-05-14T06:59:00.212Z,7.00
2018-05-14T07:01:27.679Z,7.53
2018-05-14T07:03:55.115Z,7.17
2018-05-14T07:06:23.340Z,7.00
2018-05-14T07:08:50.802Z,6.63
2018-05-14T07:11:18.255Z,6.87
2018-05-14T07:13:45.723Z,7.13
2018-05-14T07:16:13.170Z,7.23
2018-05-14T07:18:40.667Z,7.57
2018-05-14T07:21:08.231Z,6.53
2018-05-14T07:23:35.691Z,7.37
2018-05-14T07:26:03.176Z,6.80
2018-05-14T07:28:30.614Z,7.23
2018-05-14T07:30:58.182Z,7.27
2018-05-14T07:33:25.630Z,7.67
2018-05-14T07:35:53.107Z,7.90
2018-05-14T07:38:20.570Z,7.33
2018-05-14T07:40:48.068Z,7.83
2018-05-14T07:43:15.554Z,8.60
2018-05-14T07:45:43.789Z,8.43
2018-05-14T07:48:11.359Z,8.93
2018-05-14T07:50:38.910Z,8.20
2018-05-14T07:53:06.370Z,8.17
2018-05-14T07:55:33.841Z,7.47
2018-05-14T07:58:01.303Z,7.27
2018-05-14T08:00:28.850Z,6.57
2018-05-14T08:02:56.430Z,6.90
2018-05-14T08:05:24.001Z,6.70
2018-05-14T08:07:51.458Z,8.03
2018-05-14T08:10:18.927Z,7.50
2018-05-14T08:12:46.391Z,7.83
2018-05-14T08:15:13.850Z,7.17
2018-05-14T08:17:41.313Z,7.33
2018-05-14T08:20:08.796Z,6.30
2018-05-14T08:22:36.239Z,7.60
2018-05-14T08:25:03.705Z,7.60
2018-05-14T08:27:31.174Z,7.40
2018-05-14T08:29:58.633Z,7.90
2018-05-14T08:32:26.095Z,7.90
2018-05-14T08:34:53.540Z,9.17
2018-05-14T08:37:21.017Z,7.77
2018-05-14T08:39:48.467Z,7.93
2018-05-14T08:42:15.942Z,7.87
2018-05-14T08:44:43.519Z,7.97
2018-05-14T08:47:10.978Z,8.93
2018-05-14T08:49:38.438Z,8.90
2018-05-14T08:52:06.006Z,9.03
2018-05-14T08:54:34.355Z,8.97
2018-05-14T08:57:01.749Z,9.23
2018-05-14T08:59:29.182Z,8.90
2018-05-14T09:01:56.682Z,9.40
2018-05-14T09:04:24.239Z,8.67
2018-05-14T09:06:51.806Z,8.00
2018-05-14T09:09:19.266Z,8.20
2018-05-14T09:11:46.743Z,8.40
2018-05-14T09:14:14.183Z,9.27
2018-05-14T09:16:42.011Z,7.90
2018-05-14T09:19:10.264Z,8.50
2018-05-14T09:21:37.714Z,9.13
2018-05-14T09:24:05.166Z,8.77
2018-05-14T09:26:32.634Z,9.40
2018-05-14T09:29:00.083Z,8.03
2018-05-14T09:31:27.550Z,10.43
2018-05-14T09:33:55.006Z,10.10
2018-05-14T09:36:22.467Z,9.70
2018-05-14T09:38:49.966Z,9.80
2018-05-14T09:41:17.415Z,8.83
2018-05-14T09:43:44.871Z,9.87
2018-05-14T09:46:12.351Z,10.13
2018-05-14T09:48:39.796Z,9.27
2018-05-14T09:51:07.243Z,10.00
2018-05-14T09:53:34.726Z,10.20
2018-05-14T09:56:02.199Z,9.73
2018-05-14T09:58:29.643Z,9.87
2018-05-14T10:00:57.138Z,10.10
2018-05-14T10:03:24.735Z,9.53
2018-05-14T10:05:52.163Z,10.50
2018-05-14T10:08:19.713Z,9.57
2018-05-14T10:10:47.180Z,9.40
2018-05-14T10:13:14.742Z,10.30
2018-05-14T10:15:42.335Z,10.50
2018-05-14T10:18:09.803Z,10.83
2018-05-14T10:20:37.343Z,11.30
2018-05-14T10:23:04.921Z,11.47
2018-05-14T10:25:32.471Z,10.37
2018-05-14T10:28:00.035Z,10.63
2018-05-14T10:30:27.515Z,11.27
2018-05-14T10:32:54.990Z,10.50
2018-05-14T10:35:22.533Z,11.00
2018-05-14T10:37:49.984Z,12.83
2018-05-14T10:40:17.454Z,12.00
2018-05-14T10:42:44.921Z,12.43
2018-05-14T10:45:12.391Z,12.50
2018-05-14T10:47:39.943Z,12.57
2018-05-14T10:50:07.420Z,13.90
2018-05-14T10:52:34.987Z,13.73
2018-05-14T10:55:02.654Z,13.07
2018-05-14T10:57:30.108Z,13.60
2018-05-14T10:59:57.571Z,13.90
2018-05-14T11:02:25.058Z,13.80
2018-05-14T11:04:54.010Z,13.67
2018-05-14T11:07:21.495Z,13.47
2018-05-14T11:09:49.060Z,14.77
2018-05-14T11:12:16.522Z,15.27
2018-05-14T11:14:44.040Z,14.27
2018-05-14T11:17:12.262Z,14.17
2018-05-14T11:19:39.726Z,14.97
2018-05-14T11:22:07.190Z,15.13
2018-05-14T11:24:34.741Z,15.53
2018-05-14T11:27:02.133Z,15.77
2018-05-14T11:29:29.606Z,14.83
2018-05-14T11:31:57.089Z,15.80
2018-05-14T11:34:25.303Z,15.40
2018-05-14T11:36:52.760Z,15.30
2018-05-14T11:39:20.227Z,14.60
2018-05-14T11:41:47.687Z,15.47
2018-05-14T11:44:15.159Z,15.13
2018-05-14T11:46:42.656Z,15.87
2018-05-14T11:49:10.207Z,15.00
2018-05-14T11:51:37.772Z,14.93
2018-05-14T11:54:05.346Z,15.57
2018-05-14T11:56:32.823Z,14.87
2018-05-14T11:59:00.376Z,15.30
2018-05-14T12:01:27.837Z,16.37
2018-05-14T12:03:55.527Z,16.13
2018-05-14T12:06:23.004Z,15.93
2018-05-14T12:08:50.474Z,16.93
2018-05-14T12:11:18.703Z,16.67
2018-05-14T12:13:46.150Z,16.97
2018-05-14T12:16:14.030Z,16.77
2018-05-14T12:18:41.415Z,17.20
2018-05-14T12:21:08.897Z,16.43
2018-05-14T12:23:37.430Z,17.07
2018-05-14T12:26:04.903Z,16.93
2018-05-14T12:28:32.355Z,16.63
2018-05-14T12:31:00.063Z,16.70
2018-05-14T12:33:27.614Z,16.63
2018-05-14T12:35:55.075Z,17.37
2018-05-14T12:38:22.554Z,16.97
2018-05-14T12:40:50.096Z,18.23
2018-05-14T12:43:17.470Z,19.37
2018-05-14T12:45:45.034Z,18.20
2018-05-14T12:48:12.486Z,18.73
2018-05-14T12:50:39.954Z,18.30
2018-05-14T12:53:07.414Z,18.10
2018-05-14T12:55:34.889Z,17.07
2018-05-14T12:58:02.350Z,19.00
2018-05-14T13:00:29.823Z,16.80
2018-05-14T13:02:57.286Z,18.60
2018-05-14T13:05:24.761Z,17.77
2018-05-14T13:07:52.234Z,18.80
2018-05-14T13:10:19.702Z,19.17
2018-05-14T13:12:47.923Z,17.50
2018-05-14T13:15:15.420Z,19.17
2018-05-14T13:17:42.866Z,18.97
2018-05-14T13:20:10.442Z,19.20
2018-05-14T13:22:37.890Z,19.03
2018-05-14T13:25:05.374Z,19.20
2018-05-14T13:27:32.831Z,17.40
2018-05-14T13:30:00.395Z,19.03
2018-05-14T13:32:27.867Z,18.50
2018-05-14T13:34:55.333Z,18.57
2018-05-14T13:37:22.826Z,18.10
2018-05-14T13:39:51.067Z,19.33
2018-05-14T13:42:18.523Z,18.40
2018-05-14T13:44:45.984Z,18.43
2018-05-14T13:47:13.562Z,19.40
2018-05-14T13:49:41.014Z,18.50
2018-05-14T13:52:08.491Z,19.33
2018-05-14T13:54:36.054Z,19.90
2018-05-14T13:57:03.547Z,18.87
2018-05-14T13:59:31.091Z,18.53
2018-05-14T14:01:58.543Z,18.10
2018-05-14T14:04:26.108Z,17.37
2018-05-14T14:06:53.573Z,19.23
2018-05-14T14:09:21.034Z,18.30
2018-05-14T14:11:48.508Z,17.73
2018-05-14T14:14:16.062Z,18.30
2018-05-14T14:16:43.550Z,19.37
2018-05-14T14:19:11.090Z,18.07
2018-05-14T14:21:38.555Z,19.33
2018-05-14T14:24:06.128Z,19.67
2018-05-14T14:26:33.502Z,17.87
2018-05-14T14:29:00.970Z,18.97
2018-05-14T14:31:28.515Z,18.93
2018-05-14T14:33:55.984Z,19.13
2018-05-14T14:36:23.656Z,18.60
2018-05-14T14:38:51.923Z,17.70
2018-05-14T14:41:19.503Z,19.00
2018-05-14T14:43:46.946Z,20.03
2018-05-14T14:46:14.437Z,18.77
2018-05-14T14:48:41.982Z,20.40
2018-05-14T14:51:09.458Z,18.33
2018-05-14T14:53:36.952Z,18.27
2018-05-14T14:56:05.181Z,19.33
2018-05-14T14:58:32.666Z,19.90
2018-05-14T15:01:00.220Z,20.30
2018-05-14T15:03:27.666Z,20.03
2018-05-14T15:05:55.203Z,20.63
2018-05-14T15:08:23.460Z,20.73
2018-05-14T15:10:50.937Z,21.27
2018-05-14T15:13:19.145Z,19.63
2018-05-14T15:15:46.627Z,21.60
2018-05-14T15:18:14.094Z,22.57
2018-05-14T15:20:41.572Z,21.93
2018-05-14T15:23:09.126Z,21.73
2018-05-14T15:25:36.595Z,22.03
2018-05-14T15:28:04.167Z,22.23
2018-05-14T15:30:31.619Z,23.23
2018-05-14T15:32:59.097Z,23.33
2018-05-14T15:35:26.547Z,22.30
2018-05-14T15:37:54.048Z,23.27
2018-05-14T15:40:22.388Z,24.03
2018-05-14T15:42:49.864Z,23.00
2018-05-14T15:45:17.418Z,22.20
2018-05-14T15:47:44.876Z,23.67
2018-05-14T15:50:12.454Z,23.57
2018-05-14T15:52:40.015Z,21.90
2018-05-14T15:55:07.485Z,22.83
2018-05-14T15:57:34.962Z,24.20
2018-05-14T16:00:02.427Z,23.33
2018-05-14T16:02:29.990Z,22.33
2018-05-14T16:04:57.440Z,22.80
2018-05-14T16:07:24.971Z,24.17
2018-05-14T16:09:52.434Z,22.73
2018-05-14T16:12:19.929Z,22.80
2018-05-14T16:14:47.379Z,22.50
2018-05-14T16:17:14.859Z,20.73
2018-05-14T16:19:42.330Z,21.27
2018-05-14T16:22:09.802Z,20.73
2018-05-14T16:24:37.280Z,20.50
2018-05-14T16:27:05.523Z,19.40
2018-05-14T16:29:32.994Z,22.07
2018-05-14T16:32:00.469Z,20.87
2018-05-14T16:34:27.922Z,22.00
2018-05-14T16:36:55.394Z,21.50
2018-05-14T16:39:22.882Z,23.90
2018-05-14T16:41:51.201Z,24.87
2018-05-14T16:44:18.690Z,24.60
2018-05-14T16:46:46.158Z,25.57
2018-05-14T16:49:13.611Z,25.97
2018-05-14T16:51:41.099Z,26.67
2018-05-14T16:54:10.051Z,26.93
2018-05-14T16:56:37.526Z,26.50
2018-05-14T16:59:05.000Z,27.43
2018-05-14T17:01:32.474Z,26.67
2018-05-14T17:03:59.927Z,26.07
2018-05-14T17:06:27.387Z,27.27
2018-05-14T17:08:54.880Z,25.77
2018-05-14T17:11:22.322Z,26.17
2018-05-14T17:13:49.779Z,26.47
2018-05-14T17:16:17.266Z,27.07
2018-05-14T17:18:44.810Z,26.87
2018-05-14T17:21:12.266Z,27.53
2018-05-14T17:23:39.738Z,27.63
2018-05-14T17:26:07.194Z,26.10
2018-05-14T17:28:34.762Z,26.33
2018-05-14T17:31:02.230Z,26.57
2018-05-14T17:33:29.748Z,25.63
2018-05-14T17:35:57.977Z,26.67
2018-05-14T17:38:25.886Z,27.57
2018-05-14T17:40:54.121Z,29.03
2018-05-14T17:43:21.584Z,28.57
2018-05-14T17:45:49.041Z,28.20
2018-05-14T17:48:16.602Z,28.70
2018-05-14T17:50:44.093Z,26.97
2018-05-14T17:53:11.563Z,26.33
2018-05-14T17:55:39.032Z,26.97
2018-05-14T17:58:06.586Z,27.67
2018-05-14T18:00:34.065Z,27.33
2018-05-14T18:03:01.530Z,26.70
2018-05-14T18:05:29.070Z,27.20
2018-05-14T18:07:56.550Z,26.93
2018-05-14T18:10:24.158Z,28.20
2018-05-14T18:12:51.585Z,25.00
2018-05-14T18:15:19.037Z,25.10
2018-05-14T18:17:46.578Z,25.80
2018-05-14T18:20:20.574Z,25.63
2018-05-14T18:22:48.072Z,25.40
2018-05-14T18:25:21.133Z,25.33
2018-05-14T18:27:54.204Z,24.40
2018-05-14T18:30:28.334Z,24.80
2018-05-14T18:33:01.423Z,24.80
2018-05-14T18:35:34.519Z,26.80
2018-05-14T18:38:02.002Z,25.73
2018-05-14T18:40:29.471Z,24.70
2018-05-14T18:42:56.931Z,25.10
2018-05-14T18:45:24.508Z,24.77
2018-05-14T18:47:51.990Z,25.33
2018-05-14T18:50:19.466Z,24.43
2018-05-14T18:52:47.716Z,25.77
2018-05-14T18:55:15.162Z,24.87
2018-05-14T18:57:42.643Z,25.60
2018-05-14T19:00:10.098Z,25.10
2018-05-14T19:02:37.575Z,24.60
2018-05-14T19:05:05.123Z,24.57
2018-05-14T19:07:32.598Z,22.73
2018-05-14T19:10:00.082Z,23.93
2018-05-14T19:12:27.633Z,23.03
2018-05-14T19:15:00.605Z,24.00
2018-05-14T19:17:33.851Z,23.87
2018-05-14T19:20:02.564Z,23.23
2018-05-14T19:22:35.883Z,24.90
2018-05-14T19:25:03.379Z,23.93
2018-05-14T19:27:30.914Z,25.10
2018-05-14T19:29:58.360Z,23.60
2018-05-14T19:32:25.838Z,23.40
2018-05-14T19:34:59.110Z,25.73
2018-05-14T19:37:26.602Z,24.53
2018-05-14T19:39:59.665Z,24.63
2018-05-14T19:42:27.132Z,25.03
2018-05-14T19:44:54.592Z,26.00
2018-05-14T19:47:22.029Z,27.00
2018-05-14T19:49:50.367Z,25.23
2018-05-14T19:52:17.755Z,26.87
2018-05-14T19:54:45.290Z,26.17
2018-05-14T19:57:12.749Z,26.57
2018-05-14T19:59:40.219Z,24.67
2018-05-14T20:02:07.678Z,26.93
2018-05-14T20:04:35.121Z,27.47
2018-05-14T20:07:02.609Z,26.70
2018-05-14T20:09:30.067Z,27.43
2018-05-14T20:11:57.558Z,26.30
2018-05-14T20:14:25.001Z,25.87
2018-05-14T20:16:52.465Z,26.43
2018-05-14T20:19:19.930Z,25.63
2018-05-14T20:21:47.376Z,27.47
2018-05-14T20:24:14.842Z,29.47
2018-05-14T20:26:42.285Z,29.07
2018-05-14T20:29:09.750Z,28.97
2018-05-14T20:31:37.213Z,29.90
2018-05-14T20:34:04.981Z,29.63
2018-05-14T20:36:32.485Z,28.00
2018-05-14T20:39:00.029Z,27.10
2018-05-14T20:41:27.501Z,28.43
2018-05-14T20:43:54.974Z,29.07
2018-05-14T20:46:22.524Z,29.47
2018-05-14T20:48:49.969Z,28.57
2018-05-14T20:51:17.439Z,29.40
2018-05-14T20:53:44.903Z,29.17
2018-05-14T20:56:12.379Z,29.57
2018-05-14T20:58:39.823Z,28.60
2018-05-14T21:01:07.315Z,28.00
2018-05-14T21:03:34.757Z,28.20
2018-05-14T21:06:02.320Z,28.60
2018-05-14T21:08:29.673Z,28.97
2018-05-14T21:10:57.137Z,28.57
2018-05-14T21:13:24.626Z,27.57
2018-05-14T21:15:52.189Z,28.07
2018-05-14T21:18:19.653Z,27.70
2018-05-14T21:20:47.127Z,27.73
2018-05-14T21:23:14.679Z,27.63
2018-05-14T21:25:42.142Z,27.50
2018-05-14T21:28:09.609Z,26.60
2018-05-14T21:30:37.075Z,24.63
2018-05-14T21:33:04.529Z,24.07
2018-05-14T21:35:32.092Z,24.23
2018-05-14T21:37:59.566Z,23.20
2018-05-14T21:40:27.035Z,21.10
2018-05-14T21:42:54.510Z,21.80
2018-05-14T21:45:22.050Z,21.93
2018-05-14T21:47:49.508Z,22.43
2018-05-14T21:50:17.043Z,22.00
2018-05-14T21:52:44.453Z,22.47
2018-05-14T21:55:11.903Z,23.60
2018-05-14T21:57:39.469Z,20.63
2018-05-14T22:00:06.922Z,21.33
2018-05-14T22:02:34.377Z,20.57
2018-05-14T22:05:01.837Z,21.40
2018-05-14T22:07:29.282Z,19.10
2018-05-14T22:09:56.745Z,19.63
2018-05-14T22:12:24.196Z,19.57
2018-05-14T22:14:52.426Z,20.07
2018-05-14T22:17:19.910Z,20.47
2018-05-14T22:19:47.365Z,19.10
2018-05-14T22:22:14.817Z,18.00
2018-05-14T22:24:42.276Z,18.33
2018-05-14T22:27:09.745Z,19.00
2018-05-14T22:29:37.192Z,18.80
2018-05-14T22:32:04.682Z,18.00
2018-05-14T22:34:32.138Z,17.10
2018-05-14T22:36:59.605Z,18.23
2018-05-14T22:39:27.053Z,18.73
2018-05-14T22:41:54.519Z,18.10
2018-05-14T22:44:22.080Z,19.70
2018-05-14T22:46:49.554Z,19.53
2018-05-14T22:49:17.019Z,19.43
2018-05-14T22:51:44.481Z,19.23
2018-05-14T22:54:11.930Z,19.73
2018-05-14T22:56:39.410Z,21.40
2018-05-14T22:59:06.869Z,21.93
2018-05-14T23:01:34.332Z,21.83
2018-05-14T23:04:01.821Z,22.77
2018-05-14T23:06:29.358Z,22.00
2018-05-14T23:08:56.821Z,22.33
2018-05-14T23:11:24.285Z,21.63
2018-05-14T23:13:51.849Z,23.07
2018-05-14T23:16:19.291Z,22.10
2018-05-14T23:18:46.757Z,22.53
2018-05-14T23:21:14.699Z,22.17
2018-05-14T23:23:42.602Z,21.40
2018-05-14T23:26:10.095Z,20.60
2018-05-14T23:28:37.560Z,20.80
2018-05-14T23:31:05.014Z,22.57
2018-05-14T23:33:32.494Z,21.53
2018-05-14T23:35:59.968Z,20.63
2018-05-14T23:38:27.431Z,21.53
2018-05-14T23:40:54.876Z,21.50
2018-05-14T23:43:22.433Z,20.83
2018-05-14T23:45:50.047Z,19.90
2018-05-14T23:48:17.508Z,21.83
2018-05-14T23:50:44.918Z,20.80
2018-05-14T23:53:12.495Z,20.73
2018-05-14T23:55:39.937Z,21.73
2018-05-14T23:58:07.397Z,21.47
